Time;durP1;ratioP1;P1;durP2;ratioP2;P2;SDS_P1;SDS_P2;PMS_P1;PMS_P2;Temp;Humidity;BMP_temperature;BMP_pressure;BME280_temperature;BME280_humidity;BME280_pressure;Samples;Min_cycle;Max_cycle;Signal;HPM_P1;HPM_P2
2023/05/26 00:01:08;;;;;;;5.20;3.35;;;16.50;99.90;;;;;;4160981;28;20092;-74
2023/05/26 00:03:10;;;;;;;5.80;3.75;;;16.50;99.90;;;;;;4163128;28;20107;-70
2023/05/26 00:05:13;;;;;;;3.92;2.95;;;16.60;99.90;;;;;;4162833;28;20068;-76
2023/05/26 00:07:16;;;;;;;5.43;3.83;;;16.60;99.90;;;;;;4163982;28;20093;-74
2023/05/26 00:09:17;;;;;;;6.25;3.65;;;16.60;99.90;;;;;;4162692;28;20045;-72
2023/05/26 00:11:18;;;;;;;7.90;3.83;;;16.60;99.90;;;;;;4163937;28;20041;-73
2023/05/26 00:13:19;;;;;;;4.47;3.75;;;16.60;99.90;;;;;;4162972;28;20470;-73
2023/05/26 00:15:20;;;;;;;10.18;4.38;;;16.60;99.90;;;;;;4163348;28;20067;-76
2023/05/26 00:17:22;;;;;;;5.55;4.13;;;16.60;99.90;;;;;;4163240;28;20021;-70
2023/05/26 00:19:24;;;;;;;6.70;3.70;;;16.60;99.90;;;;;;4163386;28;20528;-70
2023/05/26 00:21:25;;;;;;;5.97;3.95;;;16.50;99.90;;;;;;4162372;28;20038;-73
2023/05/26 00:23:27;;;;;;;4.35;3.50;;;16.40;99.90;;;;;;4162602;28;20038;-69
2023/05/26 00:25:28;;;;;;;4.65;3.70;;;16.20;99.90;;;;;;4162912;28;20131;-70
2023/05/26 00:27:29;;;;;;;6.25;4.10;;;16.00;99.90;;;;;;4162176;28;20548;-73
2023/05/26 00:29:30;;;;;;;8.23;3.80;;;15.90;99.90;;;;;;4163238;28;20084;-75
2023/05/26 00:31:32;;;;;;;7.20;3.67;;;15.70;99.90;;;;;;4162019;28;20559;-72
2023/05/26 00:33:33;;;;;;;5.43;4.00;;;15.60;99.90;;;;;;4163769;28;20030;-73
2023/05/26 00:35:34;;;;;;;4.28;3.70;;;15.60;99.90;;;;;;4161680;28;20490;-71
2023/05/26 00:37:35;;;;;;;4.70;3.80;;;15.60;99.90;;;;;;4163661;28;20087;-71
2023/05/26 00:39:36;;;;;;;4.30;3.90;;;15.50;99.90;;;;;;4162577;28;20029;-71
2023/05/26 00:41:37;;;;;;;6.90;3.92;;;15.60;99.90;;;;;;4161966;28;20096;-67
2023/05/26 00:43:39;;;;;;;8.30;4.65;;;15.70;99.90;;;;;;4162500;28;20428;-72
2023/05/26 00:45:40;;;;;;;7.22;4.30;;;15.60;99.90;;;;;;4163246;28;20045;-72
2023/05/26 00:47:41;;;;;;;4.93;3.88;;;15.60;99.90;;;;;;4161940;28;20503;-70
2023/05/26 00:49:42;;;;;;;4.68;3.95;;;15.50;99.90;;;;;;4163012;28;20493;-63
2023/05/26 00:51:45;;;;;;;7.60;4.22;;;15.40;99.90;;;;;;4162665;28;20539;-72
2023/05/26 00:53:46;;;;;;;6.90;4.07;;;15.30;99.90;;;;;;4161050;28;20041;-70
2023/05/26 00:55:51;;;;;;;6.40;4.20;;;15.30;99.90;;;;;;4162963;28;20026;-64
2023/05/26 00:57:52;;;;;;;7.03;4.18;;;15.30;99.90;;;;;;4160885;28;20041;-63
2023/05/26 00:59:55;;;;;;;5.55;4.45;;;15.30;99.90;;;;;;4163523;28;20095;-71
2023/05/26 01:01:57;;;;;;;8.50;5.30;;;15.20;99.90;;;;;;4161808;28;20029;-68
2023/05/26 01:03:58;;;;;;;6.05;4.40;;;15.20;99.90;;;;;;4162465;28;20096;-70
2023/05/26 01:06:00;;;;;;;7.05;5.35;;;15.20;99.90;;;;;;4160641;28;20107;-70
2023/05/26 01:08:02;;;;;;;8.05;3.90;;;15.30;99.90;;;;;;4163100;28;20033;-74
2023/05/26 01:10:03;;;;;;;7.15;4.72;;;15.30;99.90;;;;;;4161911;28;20047;-64
2023/05/26 01:12:11;;;;;;;8.73;4.50;;;15.30;99.90;;;;;;4162531;28;20646;-63
2023/05/26 01:14:25;;;;;;;5.53;4.28;;;15.30;99.90;;;;;;4161911;28;20025;-63
2023/05/26 01:16:33;;;;;;;10.10;4.97;;;15.30;99.90;;;;;;4162035;28;20042;-63
2023/05/26 01:18:45;;;;;;;7.18;4.60;;;15.40;99.90;;;;;;4161857;28;20037;-63
2023/05/26 01:20:57;;;;;;;6.38;5.05;;;15.40;99.90;;;;;;4162532;28;20038;-63
2023/05/26 01:23:17;;;;;;;9.27;5.00;;;15.40;99.90;;;;;;4161660;28;20041;-75
2023/05/26 01:25:44;;;;;;;5.63;4.22;;;15.50;99.90;;;;;;4162963;28;20083;-67
2023/05/26 01:28:22;;;;;;;4.22;3.83;;;15.50;99.90;;;;;;4161727;28;20087;-67
2023/05/26 01:30:23;;;;;;;6.82;4.38;;;15.50;99.90;;;;;;4080363;29;20094;-62
2023/05/26 01:32:26;;;;;;;6.28;5.03;;;15.50;99.90;;;;;;4131252;28;20095;-70
2023/05/26 01:34:27;;;;;;;10.30;6.60;;;15.50;99.90;;;;;;4144311;28;20057;-72
2023/05/26 01:36:29;;;;;;;6.38;5.28;;;15.50;99.90;;;;;;4145206;28;20056;-63
2023/05/26 01:38:31;;;;;;;11.27;5.70;;;15.40;99.90;;;;;;4152974;28;20079;-71
2023/05/26 01:40:33;;;;;;;9.73;6.28;;;15.20;99.90;;;;;;4161519;28;20033;-71
2023/05/26 01:42:41;;;;;;;4.95;4.20;;;15.10;99.90;;;;;;4162687;28;20474;-63
2023/05/26 01:44:48;;;;;;;10.45;4.85;;;15.10;99.90;;;;;;4160540;28;20107;-73
2023/05/26 01:46:51;;;;;;;6.70;5.00;;;15.10;99.90;;;;;;4162523;28;20033;-71
2023/05/26 01:48:56;;;;;;;6.35;4.32;;;15.10;99.90;;;;;;4160246;28;20092;-74
2023/05/26 01:50:59;;;;;;;6.53;4.63;;;15.00;99.90;;;;;;4161347;28;20057;-67
2023/05/26 01:53:06;;;;;;;5.53;4.60;;;15.00;99.90;;;;;;4160890;28;20038;-72
2023/05/26 01:55:11;;;;;;;6.40;4.28;;;15.00;99.90;;;;;;4161259;28;20109;-63
2023/05/26 01:57:13;;;;;;;7.72;4.30;;;14.90;99.90;;;;;;4161170;28;20087;-68
2023/05/26 01:59:16;;;;;;;6.25;4.25;;;14.80;99.90;;;;;;4162509;28;20022;-74
2023/05/26 02:01:18;;;;;;;9.13;4.72;;;14.70;99.90;;;;;;4155661;28;20025;-74
2023/05/26 02:03:20;;;;;;;9.52;5.18;;;14.60;99.90;;;;;;4161982;28;20743;-75
2023/05/26 02:05:21;;;;;;;6.20;4.80;;;14.60;99.90;;;;;;4161390;28;20056;-73
2023/05/26 02:07:22;;;;;;;5.07;4.53;;;14.50;99.90;;;;;;4161515;28;20048;-70
2023/05/26 02:09:24;;;;;;;8.15;5.55;;;14.40;99.90;;;;;;4161346;28;20021;-74
2023/05/26 02:11:25;;;;;;;10.07;5.03;;;14.40;99.90;;;;;;4161150;28;20045;-63
2023/05/26 02:13:26;;;;;;;7.90;5.20;;;14.40;99.90;;;;;;4162157;28;20064;-73
2023/05/26 02:15:27;;;;;;;10.07;4.57;;;14.40;99.90;;;;;;4160920;28;20025;-75
2023/05/26 02:17:28;;;;;;;8.02;5.88;;;14.40;99.90;;;;;;4162093;28;20099;-64
2023/05/26 02:19:29;;;;;;;13.15;6.78;;;14.30;99.90;;;;;;4160261;28;20440;-63
2023/05/26 02:21:31;;;;;;;11.40;7.47;;;14.30;99.90;;;;;;4161750;28;20449;-63
2023/05/26 02:23:32;;;;;;;13.85;7.82;;;14.30;99.90;;;;;;4160126;28;20037;-66
2023/05/26 02:25:33;;;;;;;12.10;7.03;;;14.30;99.90;;;;;;4161200;28;20429;-73
2023/05/26 02:27:34;;;;;;;8.98;7.40;;;14.30;99.90;;;;;;4159963;28;20037;-64
2023/05/26 02:29:36;;;;;;;10.57;7.65;;;14.30;99.90;;;;;;4161865;28;20393;-63
2023/05/26 02:31:39;;;;;;;8.15;6.72;;;14.40;99.90;;;;;;4160139;28;20049;-63
2023/05/26 02:33:41;;;;;;;10.02;6.13;;;14.40;99.90;;;;;;4160669;28;20482;-76
2023/05/26 02:35:42;;;;;;;9.53;5.57;;;14.50;99.90;;;;;;4160587;28;20010;-74
2023/05/26 02:37:43;;;;;;;7.63;5.70;;;14.50;99.90;;;;;;4161346;28;20079;-69
2023/05/26 02:39:44;;;;;;;7.65;5.68;;;14.60;99.90;;;;;;4161161;28;20367;-63
2023/05/26 02:41:45;;;;;;;7.75;5.72;;;14.60;99.90;;;;;;4160900;28;20051;-68
2023/05/26 02:43:47;;;;;;;8.65;6.13;;;14.50;99.90;;;;;;4161521;28;20103;-63
2023/05/26 02:45:48;;;;;;;11.40;5.53;;;14.50;99.90;;;;;;4160475;28;20025;-62
2023/05/26 02:47:49;;;;;;;9.70;6.13;;;14.50;99.90;;;;;;4161231;28;20042;-63
2023/05/26 02:49:50;;;;;;;11.35;5.82;;;14.60;99.90;;;;;;4160199;28;20425;-65
2023/05/26 02:51:51;;;;;;;11.45;6.65;;;14.60;99.90;;;;;;4161657;28;20045;-63
2023/05/26 02:53:52;;;;;;;13.20;6.20;;;14.60;99.90;;;;;;4160710;28;20547;-63
2023/05/26 02:55:53;;;;;;;8.10;5.32;;;14.70;99.90;;;;;;4160933;28;20045;-71
2023/05/26 02:57:54;;;;;;;9.70;5.30;;;14.70;99.90;;;;;;4160308;28;20045;-73
2023/05/26 02:59:56;;;;;;;9.23;5.60;;;14.80;99.90;;;;;;4162046;28;20474;-73
2023/05/26 03:01:57;;;;;;;10.43;5.80;;;14.90;99.90;;;;;;4160530;28;20068;-63
2023/05/26 03:03:58;;;;;;;7.13;5.10;;;15.00;99.90;;;;;;4161145;28;20083;-68
2023/05/26 03:05:59;;;;;;;8.38;5.28;;;15.20;99.90;;;;;;4162987;28;20029;-63
2023/05/26 03:08:03;;;;;;;8.55;5.35;;;15.30;99.90;;;;;;4164315;28;20087;-69
2023/05/26 03:10:04;;;;;;;7.10;4.80;;;15.50;99.90;;;;;;4163318;28;20057;-63
2023/05/26 03:12:06;;;;;;;6.20;4.82;;;15.60;99.90;;;;;;4163731;28;20037;-63
2023/05/26 03:14:08;;;;;;;10.02;4.68;;;15.80;99.90;;;;;;4164609;28;20021;-66
2023/05/26 03:16:10;;;;;;;13.43;5.05;;;15.90;99.90;;;;;;4163715;28;20478;-63
2023/05/26 03:18:13;;;;;;;9.65;4.95;;;16.10;99.90;;;;;;4163933;28;20041;-63
2023/05/26 03:20:14;;;;;;;10.45;4.30;;;16.30;99.90;;;;;;4163643;28;20454;-67
2023/05/26 03:22:16;;;;;;;9.02;4.18;;;16.40;99.90;;;;;;4164495;28;20099;-63
2023/05/26 03:24:17;;;;;;;14.05;4.95;;;16.60;99.90;;;;;;4163660;28;20029;-72
2023/05/26 03:26:18;;;;;;;10.20;4.80;;;16.80;99.90;;;;;;4164564;28;20469;-63
2023/05/26 03:28:19;;;;;;;6.53;3.80;;;17.00;99.90;;;;;;4163364;28;20128;-72
2023/05/26 03:30:21;;;;;;;7.68;3.55;;;17.30;99.90;;;;;;4165008;28;20041;-70
2023/05/26 03:32:22;;;;;;;9.02;4.88;;;17.60;99.90;;;;;;4163166;28;20033;-63
2023/05/26 03:34:24;;;;;;;11.90;5.00;;;17.80;99.90;;;;;;4164501;28;20061;-64
2023/05/26 03:36:26;;;;;;;12.52;4.85;;;18.00;99.90;;;;;;4163133;28;20424;-64
2023/05/26 03:38:27;;;;;;;9.98;4.72;;;18.20;99.90;;;;;;4163997;28;20064;-64
2023/05/26 03:40:28;;;;;;;21.65;6.38;;;18.50;99.90;;;;;;4163446;28;20025;-68
2023/05/26 03:42:30;;;;;;;14.60;5.38;;;18.80;99.90;;;;;;4163589;28;20091;-64
2023/05/26 03:44:31;;;;;;;5.30;4.22;;;19.10;99.90;;;;;;4163902;28;20025;-74
2023/05/26 03:46:32;;;;;;;10.50;4.70;;;19.40;99.90;;;;;;4163284;28;20029;-70
2023/05/26 03:48:34;;;;;;;8.55;4.20;;;19.70;99.90;;;;;;4164192;28;20034;-73
2023/05/26 03:50:35;;;;;;;6.93;3.83;;;20.00;99.90;;;;;;4162072;28;20045;-70
2023/05/26 03:52:36;;;;;;;5.88;3.22;;;20.00;99.90;;;;;;4163663;28;20088;-73
2023/05/26 03:54:37;;;;;;;7.50;4.18;;;20.20;99.90;;;;;;4163000;28;20041;-74
2023/05/26 03:56:38;;;;;;;5.47;3.83;;;20.10;99.90;;;;;;4146219;28;20060;-75
2023/05/26 03:58:39;;;;;;;7.57;4.32;;;20.30;99.90;;;;;;4162353;28;20085;-77
2023/05/26 04:00:41;;;;;;;5.43;4.10;;;20.40;99.90;;;;;;4164145;28;20084;-75
2023/05/26 04:02:43;;;;;;;4.68;4.18;;;20.20;99.90;;;;;;4162699;28;20026;-69
2023/05/26 04:04:46;;;;;;;8.57;3.90;;;20.40;99.90;;;;;;4164101;28;20469;-75
2023/05/26 04:06:47;;;;;;;8.32;4.78;;;20.70;99.90;;;;;;4162500;28;20560;-74
2023/05/26 04:08:48;;;;;;;10.70;3.90;;;20.80;99.90;;;;;;4162968;28;20041;-69
2023/05/26 04:10:49;;;;;;;7.60;3.63;;;21.00;99.90;;;;;;4162045;28;20041;-73
2023/05/26 04:12:50;;;;;;;6.75;3.83;;;21.10;99.90;;;;;;4163119;28;20037;-71
2023/05/26 04:14:51;;;;;;;8.45;3.65;;;21.50;99.90;;;;;;4163322;28;20088;-74
2023/05/26 04:16:52;;;;;;;6.13;3.60;;;22.00;99.90;;;;;;4160898;28;20390;-75
2023/05/26 04:18:54;;;;;;;8.10;3.15;;;22.30;99.90;;;;;;4163294;28;20045;-74
2023/05/26 04:20:55;;;;;;;6.38;3.25;;;22.70;99.90;;;;;;4159603;28;20099;-70
2023/05/26 04:22:56;;;;;;;8.10;3.03;;;23.00;99.90;;;;;;4162361;28;20087;-75
2023/05/26 04:24:57;;;;;;;5.88;3.47;;;23.30;99.90;;;;;;4161511;28;20103;-64
2023/05/26 04:26:58;;;;;;;12.80;3.60;;;23.40;99.90;;;;;;4162287;28;20705;-64
2023/05/26 04:29:00;;;;;;;7.47;3.90;;;23.20;99.90;;;;;;4161171;28;20046;-65
2023/05/26 04:31:03;;;;;;;9.68;3.58;;;23.00;99.90;;;;;;4163512;28;20087;-72
2023/05/26 04:33:05;;;;;;;8.23;3.65;;;22.60;99.90;;;;;;4161655;28;20022;-72
2023/05/26 04:35:07;;;;;;;6.22;3.50;;;22.50;99.90;;;;;;4161866;28;20110;-71
2023/05/26 04:37:09;;;;;;;10.38;4.55;;;22.40;99.90;;;;;;4161587;28;20107;-74
2023/05/26 04:39:10;;;;;;;9.10;4.03;;;22.30;99.90;;;;;;4161596;28;20068;-67
2023/05/26 04:41:12;;;;;;;10.13;3.88;;;22.30;99.90;;;;;;4162201;28;20034;-73
2023/05/26 04:43:13;;;;;;;13.80;4.75;;;22.20;99.90;;;;;;4161932;28;20037;-75
2023/05/26 04:45:14;;;;;;;12.65;4.32;;;22.10;99.90;;;;;;4162397;28;20119;-76
2023/05/26 04:47:16;;;;;;;9.30;3.80;;;22.20;99.90;;;;;;4161770;28;20026;-65
2023/05/26 04:49:17;;;;;;;8.77;4.47;;;22.30;99.90;;;;;;4162098;28;20045;-67
2023/05/26 04:51:20;;;;;;;8.35;4.20;;;22.60;99.90;;;;;;4160952;28;20107;-75
2023/05/26 04:53:21;;;;;;;8.32;4.03;;;22.80;99.90;;;;;;4162568;28;20098;-68
2023/05/26 04:55:23;;;;;;;8.45;3.78;;;23.10;99.90;;;;;;4161502;28;20042;-72
2023/05/26 04:57:24;;;;;;;8.52;4.28;;;23.70;99.90;;;;;;4162038;28;20053;-63
2023/05/26 04:59:26;;;;;;;10.60;4.28;;;24.00;99.90;;;;;;4161102;28;20054;-74
2023/05/26 05:01:27;;;;;;;10.32;4.55;;;24.20;99.90;;;;;;4162703;28;20029;-74
2023/05/26 05:03:29;;;;;;;6.43;4.35;;;24.40;99.90;;;;;;4161254;28;20063;-74
2023/05/26 05:05:30;;;;;;;6.07;4.03;;;24.50;99.90;;;;;;4162787;28;20021;-64
2023/05/26 05:07:32;;;;;;;12.13;4.13;;;24.60;99.90;;;;;;4161498;28;20087;-72
2023/05/26 05:09:33;;;;;;;5.43;3.70;;;25.00;99.90;;;;;;4161361;28;20444;-64
2023/05/26 05:11:34;;;;;;;6.75;4.07;;;25.50;99.90;;;;;;4161523;28;20049;-62
2023/05/26 05:13:35;;;;;;;5.50;4.03;;;25.70;99.90;;;;;;4161516;28;20029;-74
2023/05/26 05:15:36;;;;;;;4.93;3.80;;;25.50;99.90;;;;;;4161312;28;20030;-62
2023/05/26 05:17:38;;;;;;;7.32;3.88;;;25.20;99.90;;;;;;4161980;28;20076;-75
2023/05/26 05:19:39;;;;;;;4.45;3.75;;;25.40;99.90;;;;;;4161338;28;20042;-63
2023/05/26 05:21:40;;;;;;;5.22;3.47;;;25.60;99.90;;;;;;4160540;28;20046;-72
2023/05/26 05:23:41;;;;;;;7.90;4.03;;;25.90;99.90;;;;;;4162317;28;20079;-73
2023/05/26 05:25:42;;;;;;;4.45;3.65;;;26.20;99.70;;;;;;4160270;28;20030;-70
2023/05/26 05:27:43;;;;;;;6.30;3.38;;;26.30;99.40;;;;;;4162278;28;20087;-63
2023/05/26 05:29:45;;;;;;;7.38;3.45;;;26.30;99.10;;;;;;4160450;28;20080;-64
2023/05/26 05:31:46;;;;;;;9.15;4.03;;;26.70;98.70;;;;;;4162497;28;20037;-63
2023/05/26 05:33:47;;;;;;;3.28;2.88;;;26.80;98.20;;;;;;4161178;28;20462;-70
2023/05/26 05:35:48;;;;;;;6.28;3.40;;;26.90;97.90;;;;;;4161439;28;20083;-70
2023/05/26 05:37:53;;;;;;;4.05;3.28;;;27.00;97.60;;;;;;4159770;28;20041;-64
2023/05/26 05:39:55;;;;;;;8.73;3.30;;;27.00;97.40;;;;;;4161607;28;20029;-75
2023/05/26 05:41:56;;;;;;;7.60;3.03;;;26.70;97.10;;;;;;4159779;28;20092;-73
2023/05/26 05:43:57;;;;;;;7.85;3.35;;;26.50;97.10;;;;;;4161049;28;20497;-72
2023/05/26 05:45:59;;;;;;;8.30;2.97;;;26.20;97.20;;;;;;4161781;28;20046;-63
2023/05/26 05:48:00;;;;;;;11.55;3.63;;;26.60;97.20;;;;;;4161048;28;20111;-70
2023/05/26 05:50:02;;;;;;;5.90;3.70;;;26.80;96.90;;;;;;4161693;28;20063;-64
2023/05/26 05:52:03;;;;;;;11.85;4.13;;;26.90;96.70;;;;;;4160741;28;20037;-63
2023/05/26 05:54:04;;;;;;;8.98;3.55;;;26.80;96.60;;;;;;4161899;28;20375;-73
2023/05/26 05:56:06;;;;;;;5.65;3.30;;;27.00;96.40;;;;;;4142510;28;20125;-63
2023/05/26 05:58:07;;;;;;;7.07;4.07;;;26.40;96.60;;;;;;4162014;28;20485;-64
2023/05/26 06:00:09;;;;;;;8.25;4.10;;;25.60;97.20;;;;;;4160646;28;20083;-70
2023/05/26 06:02:10;;;;;;;12.07;3.92;;;24.90;97.90;;;;;;4161748;28;20064;-71
2023/05/26 06:04:11;;;;;;;13.93;9.43;;;25.10;98.30;;;;;;4160421;28;20075;-62
2023/05/26 06:06:12;;;;;;;5.75;3.80;;;24.60;98.50;;;;;;4161836;28;20076;-62
2023/05/26 06:08:13;;;;;;;10.02;4.07;;;24.50;99.00;;;;;;4160278;28;20106;-62
2023/05/26 06:10:15;;;;;;;5.85;3.40;;;24.60;99.00;;;;;;4161930;28;20030;-73
2023/05/26 06:12:17;;;;;;;8.65;3.90;;;24.20;99.20;;;;;;4159797;28;20460;-65
2023/05/26 06:14:18;;;;;;;3.88;3.25;;;24.20;99.50;;;;;;4161636;28;20067;-62
2023/05/26 06:16:20;;;;;;;5.00;3.20;;;24.00;99.60;;;;;;4160392;28;20029;-61
2023/05/26 06:18:21;;;;;;;5.45;3.60;;;23.80;99.60;;;;;;4161150;28;20045;-61
2023/05/26 06:20:22;;;;;;;4.13;3.70;;;23.90;99.90;;;;;;4161174;28;20021;-71
2023/05/26 06:22:23;;;;;;;5.18;3.60;;;24.00;99.90;;;;;;4159983;28;20099;-61
2023/05/26 06:24:24;;;;;;;7.15;3.40;;;23.90;99.90;;;;;;4161605;28;20426;-62
2023/05/26 06:26:25;;;;;;;6.03;4.10;;;23.60;99.90;;;;;;4160216;28;20080;-60
2023/05/26 06:28:27;;;;;;;7.97;4.70;;;23.40;99.90;;;;;;4161048;28;20033;-73
2023/05/26 06:30:28;;;;;;;10.10;4.68;;;23.50;99.90;;;;;;4160123;28;20037;-63
2023/05/26 06:32:29;;;;;;;11.48;4.82;;;23.60;99.90;;;;;;4160572;28;20127;-62
2023/05/26 06:34:30;;;;;;;8.23;6.05;;;23.70;99.90;;;;;;4160405;28;20042;-61
2023/05/26 06:36:32;;;;;;;9.07;5.57;;;23.30;99.90;;;;;;4161246;28;20448;-62
2023/05/26 06:38:33;;;;;;;8.80;5.72;;;23.00;99.90;;;;;;4160430;28;20034;-61
2023/05/26 06:40:34;;;;;;;7.45;5.40;;;22.60;99.90;;;;;;4160633;28;20034;-60
2023/05/26 06:42:35;;;;;;;13.98;5.45;;;22.20;99.90;;;;;;4159309;28;20034;-60
2023/05/26 06:44:37;;;;;;;10.00;5.90;;;22.10;99.90;;;;;;4160027;28;20029;-61
2023/05/26 06:46:38;;;;;;;8.00;4.70;;;22.50;99.90;;;;;;4160218;28;20810;-62
2023/05/26 06:48:39;;;;;;;10.82;6.00;;;22.90;99.90;;;;;;4160638;28;20071;-61
2023/05/26 06:50:41;;;;;;;10.23;5.35;;;23.60;99.90;;;;;;4159896;28;20457;-62
2023/05/26 06:52:42;;;;;;;7.28;6.07;;;24.20;99.90;;;;;;4160782;28;20026;-59
2023/05/26 06:54:43;;;;;;;6.30;5.55;;;24.00;99.90;;;;;;4143193;28;20038;-62
2023/05/26 06:56:44;;;;;;;8.25;5.10;;;23.50;99.90;;;;;;4160112;28;20045;-65
2023/05/26 06:58:45;;;;;;;12.63;6.28;;;23.50;99.90;;;;;;4161511;28;20029;-60
2023/05/26 07:01:01;;;;;;;9.05;5.82;;;23.70;99.90;;;;;;4160184;28;20083;-61
2023/05/26 07:03:02;;;;;;;11.35;6.53;;;24.00;99.90;;;;;;4156529;28;20092;-61
2023/05/26 07:05:04;;;;;;;15.43;5.95;;;23.80;99.90;;;;;;4159198;28;20091;-62
2023/05/26 07:07:05;;;;;;;10.85;6.43;;;23.50;99.90;;;;;;4161164;28;20026;-60
2023/05/26 07:09:06;;;;;;;6.80;5.35;;;23.40;99.90;;;;;;4160331;28;20029;-60
2023/05/26 07:11:09;;;;;;;13.98;7.78;;;23.30;99.90;;;;;;4161206;28;20474;-60
2023/05/26 07:13:10;;;;;;;5.95;4.53;;;23.40;99.90;;;;;;4160200;28;20099;-60
2023/05/26 07:15:11;;;;;;;6.72;4.72;;;23.80;99.90;;;;;;4161024;28;20025;-61
2023/05/26 07:17:13;;;;;;;15.73;5.13;;;23.90;99.90;;;;;;4160266;28;20465;-62
2023/05/26 07:19:14;;;;;;;9.85;4.85;;;23.80;99.90;;;;;;4161059;28;20033;-60
2023/05/26 07:21:17;;;;;;;4.50;3.92;;;23.60;99.90;;;;;;4160101;28;20422;-61
2023/05/26 07:23:18;;;;;;;7.28;4.45;;;23.60;99.90;;;;;;4160836;28;20060;-60
2023/05/26 07:25:19;;;;;;;10.35;4.30;;;23.50;99.90;;;;;;4160672;28;20067;-62
2023/05/26 07:27:20;;;;;;;9.57;3.80;;;23.40;99.90;;;;;;4160124;28;20088;-61
2023/05/26 07:29:22;;;;;;;4.35;3.35;;;23.30;99.90;;;;;;4160494;28;20087;-62
2023/05/26 07:31:23;;;;;;;5.60;3.85;;;23.10;99.90;;;;;;4160316;28;20119;-59
2023/05/26 07:33:24;;;;;;;5.43;4.10;;;23.10;99.90;;;;;;4159797;28;20099;-60
2023/05/26 07:35:25;;;;;;;8.82;4.05;;;23.40;99.90;;;;;;4141261;28;20037;-60
2023/05/26 07:37:26;;;;;;;5.75;3.47;;;23.70;99.90;;;;;;4160779;28;20071;-61
2023/05/26 07:39:27;;;;;;;6.22;3.92;;;23.80;99.90;;;;;;4159383;28;20029;-61
2023/05/26 07:41:28;;;;;;;10.43;3.85;;;23.80;99.90;;;;;;4159768;28;20449;-60
2023/05/26 07:43:29;;;;;;;5.82;3.10;;;23.40;99.90;;;;;;4158679;28;20456;-61
2023/05/26 07:45:30;;;;;;;3.60;3.03;;;23.40;99.90;;;;;;4161360;28;20532;-61
2023/05/26 07:47:32;;;;;;;4.90;3.75;;;23.70;99.90;;;;;;4142251;28;20042;-74
2023/05/26 07:49:33;;;;;;;7.15;3.35;;;23.80;99.90;;;;;;4160948;28;20072;-75
2023/05/26 07:51:35;;;;;;;3.58;3.03;;;24.00;99.90;;;;;;4161273;28;20127;-74
2023/05/26 07:53:36;;;;;;;4.55;3.28;;;23.90;99.90;;;;;;4163405;28;20466;-62
2023/05/26 07:55:37;;;;;;;3.97;3.10;;;23.60;99.90;;;;;;4163308;28;20021;-73
2023/05/26 07:57:38;;;;;;;5.47;3.10;;;23.50;99.90;;;;;;4161576;28;20107;-77
2023/05/26 07:59:39;;;;;;;4.70;3.10;;;23.50;99.90;;;;;;4162897;28;20042;-74
2023/05/26 08:01:40;;;;;;;6.07;2.50;;;23.40;99.90;;;;;;4163065;28;20555;-72
2023/05/26 08:03:42;;;;;;;4.38;2.70;;;23.30;99.90;;;;;;4163742;28;20107;-61
2023/05/26 08:05:44;;;;;;;3.78;2.80;;;23.20;99.90;;;;;;4161540;28;20556;-61
2023/05/26 08:07:45;;;;;;;5.85;2.92;;;23.60;99.90;;;;;;4162917;28;20552;-71
2023/05/26 08:09:47;;;;;;;3.00;2.70;;;23.80;99.90;;;;;;4161477;28;20407;-70
2023/05/26 08:11:48;;;;;;;2.88;2.40;;;23.70;99.80;;;;;;4163399;28;20429;-61
2023/05/26 08:13:50;;;;;;;4.32;2.85;;;23.70;99.80;;;;;;4161910;28;20029;-72
2023/05/26 08:15:51;;;;;;;4.28;2.65;;;23.80;99.80;;;;;;4158696;28;20507;-57
2023/05/26 08:17:52;;;;;;;6.65;2.78;;;24.00;99.50;;;;;;4148116;28;20072;-61
2023/05/26 08:19:53;;;;;;;2.88;2.53;;;24.00;99.50;;;;;;4163022;28;20041;-73
2023/05/26 08:21:54;;;;;;;5.75;2.75;;;24.10;99.30;;;;;;4162022;28;20453;-59
2023/05/26 08:23:55;;;;;;;7.00;2.67;;;24.30;99.10;;;;;;4162693;28;20375;-59
2023/05/26 08:25:56;;;;;;;3.83;2.53;;;24.40;98.70;;;;;;4162475;28;20187;-59
2023/05/26 08:27:57;;;;;;;4.38;2.72;;;24.70;98.50;;;;;;4162011;28;20033;-69
2023/05/26 08:29:59;;;;;;;4.38;2.47;;;24.70;97.60;;;;;;4162974;28;20079;-60
2023/05/26 08:32:00;;;;;;;4.03;2.85;;;24.50;97.40;;;;;;4161967;28;20049;-62
2023/05/26 08:34:01;;;;;;;6.43;2.92;;;24.10;97.60;;;;;;4162292;28;20034;-60
2023/05/26 08:36:02;;;;;;;5.45;2.97;;;23.90;97.70;;;;;;4160850;28;20115;-61
2023/05/26 08:38:03;;;;;;;10.80;3.22;;;23.80;97.90;;;;;;4163025;28;20021;-61
2023/05/26 08:40:05;;;;;;;3.60;3.20;;;23.90;98.20;;;;;;4161865;28;20029;-57
2023/05/26 08:42:11;;;;;;;7.72;3.40;;;23.90;98.40;;;;;;4162707;28;20100;-66
2023/05/26 08:44:16;;;;;;;3.50;2.90;;;24.20;98.20;;;;;;4161599;28;20026;-60
2023/05/26 08:46:18;;;;;;;5.68;3.17;;;24.40;97.30;;;;;;4162667;28;20033;-59
2023/05/26 08:48:20;;;;;;;8.30;2.78;;;24.30;96.80;;;;;;4160940;28;20055;-72
2023/05/26 08:50:21;;;;;;;5.55;2.83;;;24.20;96.40;;;;;;4162454;28;20068;-66
2023/05/26 08:52:23;;;;;;;4.10;3.20;;;24.30;96.60;;;;;;4161526;28;20108;-61
2023/05/26 08:54:24;;;;;;;6.03;2.70;;;24.30;96.70;;;;;;4161717;28;20482;-60
2023/05/26 08:56:26;;;;;;;5.75;3.00;;;24.30;96.90;;;;;;4161139;28;20095;-59
2023/05/26 08:58:29;;;;;;;5.43;2.70;;;24.30;97.10;;;;;;4161372;28;20528;-73
2023/05/26 09:00:31;;;;;;;4.40;3.13;;;24.30;97.10;;;;;;4161548;28;20394;-60
2023/05/26 09:02:33;;;;;;;6.22;3.30;;;24.20;97.10;;;;;;4160261;28;20080;-58
2023/05/26 09:04:34;;;;;;;5.05;2.50;;;24.30;96.70;;;;;;4162161;28;20080;-70
2023/05/26 09:06:36;;;;;;;7.50;2.95;;;24.30;96.00;;;;;;4161701;28;20034;-58
2023/05/26 09:08:37;;;;;;;3.90;2.40;;;24.20;96.00;;;;;;4162062;28;20029;-59
2023/05/26 09:10:38;;;;;;;4.40;3.10;;;24.20;95.80;;;;;;4161432;28;20072;-59
2023/05/26 09:12:39;;;;;;;5.70;2.53;;;24.20;95.60;;;;;;4161742;28;20100;-60
2023/05/26 09:14:42;;;;;;;9.75;3.00;;;24.30;95.40;;;;;;4160909;28;20168;-72
2023/05/26 09:16:43;;;;;;;3.40;2.63;;;24.40;95.30;;;;;;4161882;28;20056;-56
2023/05/26 09:18:44;;;;;;;3.80;2.75;;;24.40;95.40;;;;;;4161629;28;20533;-66
2023/05/26 09:20:47;;;;;;;5.38;3.20;;;24.50;95.40;;;;;;4149670;28;20034;-71
2023/05/26 09:22:48;;;;;;;4.25;2.97;;;24.80;95.40;;;;;;4157900;28;20084;-75
2023/05/26 09:24:50;;;;;;;3.53;3.13;;;24.80;94.90;;;;;;4162572;28;20083;-61
2023/05/26 09:26:51;;;;;;;4.13;2.63;;;24.70;94.30;;;;;;4161031;28;20029;-61
2023/05/26 09:28:52;;;;;;;4.28;2.83;;;24.60;94.50;;;;;;4161043;28;20051;-61
2023/05/26 09:30:53;;;;;;;3.50;2.90;;;24.50;94.20;;;;;;4161471;28;20022;-65
2023/05/26 09:32:54;;;;;;;4.38;2.55;;;24.50;93.90;;;;;;4142916;28;20097;-74
2023/05/26 09:35:05;;;;;;;3.60;2.92;;;24.40;94.20;;;;;;4159712;28;20444;-63
2023/05/26 09:37:09;;;;;;;5.00;3.47;;;24.40;94.50;;;;;;4160885;28;20462;-61
2023/05/26 09:39:12;;;;;;;4.40;2.53;;;24.40;94.40;;;;;;4160746;28;20045;-64
2023/05/26 09:41:18;;;;;;;3.65;2.40;;;24.20;93.50;;;;;;4160599;28;20029;-61
2023/05/26 09:43:19;;;;;;;9.18;7.03;;;24.00;93.90;;;;;;4161867;28;20030;-62
2023/05/26 09:45:21;;;;;;;5.45;2.63;;;24.10;94.10;;;;;;4160452;28;20025;-62
2023/05/26 09:47:22;;;;;;;3.53;2.80;;;24.20;93.80;;;;;;4162071;28;20040;-72
2023/05/26 09:49:23;;;;;;;3.28;2.58;;;24.30;93.70;;;;;;4161041;28;20033;-61
2023/05/26 09:51:30;;;;;;;7.95;2.95;;;24.30;92.10;;;;;;4161077;28;20034;-61
2023/05/26 09:53:31;;;;;;;6.25;2.70;;;24.30;92.10;;;;;;4160185;28;20041;-69
2023/05/26 09:55:33;;;;;;;2.55;2.35;;;24.40;91.90;;;;;;4161921;28;20037;-76
2023/05/26 09:57:37;;;;;;;2.97;2.55;;;24.30;92.30;;;;;;4160857;28;20359;-82
2023/05/26 09:59:41;;;;;;;4.32;2.78;;;24.30;92.60;;;;;;4160383;28;20033;-61
2023/05/26 10:01:43;;;;;;;7.20;3.05;;;24.40;92.70;;;;;;4160726;28;20452;-62
2023/05/26 10:03:46;;;;;;;3.88;2.70;;;24.50;93.00;;;;;;4161628;28;20470;-61
2023/05/26 10:05:50;;;;;;;5.03;3.17;;;24.60;92.50;;;;;;4159863;28;20018;-62
2023/05/26 10:07:52;;;;;;;3.08;2.78;;;24.50;92.30;;;;;;4161562;28;20061;-81
2023/05/26 10:10:00;;;;;;;6.55;2.85;;;24.30;92.40;;;;;;4160417;28;20049;-62
2023/05/26 10:12:03;;;;;;;4.22;2.63;;;24.20;92.10;;;;;;4160778;28;20405;-79
2023/05/26 10:14:05;;;;;;;3.63;2.22;;;24.30;92.20;;;;;;4159854;28;20046;-61
2023/05/26 10:16:06;;;;;;;8.38;3.42;;;24.30;92.30;;;;;;4159567;28;20452;-71
2023/05/26 10:18:07;;;;;;;3.35;2.45;;;24.30;92.50;;;;;;4161448;28;20103;-75
2023/05/26 10:20:09;;;;;;;3.83;2.80;;;24.30;92.60;;;;;;4160500;28;20030;-62
2023/05/26 10:22:36;;;;;;;3.17;2.88;;;24.50;92.50;;;;;;4161460;28;20049;-66
2023/05/26 10:24:50;;;;;;;3.08;2.50;;;24.40;91.80;;;;;;4119920;28;20119;-70
2023/05/26 10:26:57;;;;;;;3.17;2.67;;;24.30;92.20;;;;;;4160734;28;20087;-61
2023/05/26 10:29:05;;;;;;;4.20;2.95;;;24.30;91.80;;;;;;4160557;28;20033;-69
2023/05/26 10:31:06;;;;;;;4.03;2.88;;;24.40;91.70;;;;;;4161188;28;20433;-61
2023/05/26 10:33:12;;;;;;;3.17;2.88;;;24.40;91.90;;;;;;4159853;28;20522;-60
2023/05/26 10:35:23;;;;;;;3.33;2.50;;;24.50;91.40;;;;;;4159412;28;20049;-60